Time;durP1;ratioP1;P1;durP2;ratioP2;P2;SDS_P1;SDS_P2;PMS_P1;PMS_P2;Temp;Humidity;BMP_temperature;BMP_pressure;BME280_temperature;BME280_humidity;BME280_pressure;Samples;Min_cycle;Max_cycle;Signal;HPM_P1;HPM_P2
2023/12/06 00:04:38;;;;;;;2.47;1.48;;;;;;;4.08;65.85;99152.94;10518576;28;20074;-66
2023/12/06 00:09:40;;;;;;;3.42;1.80;;;;;;;4.11;65.81;99158.78;10519350;28;20052;-65
2023/12/06 00:14:42;;;;;;;8.68;2.13;;;;;;;4.13;65.99;99166.50;10517285;28;20047;-66
2023/12/06 00:19:44;;;;;;;3.75;2.25;;;;;;;4.12;65.94;99163.06;10518948;28;20082;-65
2023/12/06 00:24:46;;;;;;;7.43;2.72;;;;;;;4.15;65.91;99157.75;10517773;28;20059;-65
2023/12/06 00:29:48;;;;;;;2.85;1.60;;;;;;;4.10;66.15;99161.47;10519215;28;20105;-65
2023/12/06 00:34:50;;;;;;;2.67;1.45;;;;;;;3.95;66.53;99175.09;10500441;28;20132;-66
2023/12/06 00:39:52;;;;;;;1.67;1.20;;;;;;;3.88;66.60;99178.88;10499627;28;20070;-64
2023/12/06 00:44:56;;;;;;;2.58;1.42;;;;;;;3.97;66.78;99176.69;10482820;28;20044;-65
2023/12/06 00:49:57;;;;;;;9.63;1.75;;;;;;;4.04;66.34;99187.63;10499256;28;20503;-65
2023/12/06 00:54:59;;;;;;;1.42;1.17;;;;;;;4.08;66.24;99184.81;10516117;28;20048;-65
2023/12/06 01:00:02;;;;;;;2.45;1.40;;;;;;;4.13;66.34;99189.81;10516183;28;20886;-65
2023/12/06 01:05:05;;;;;;;2.05;1.48;;;;;;;4.17;66.37;99189.56;10515991;28;20048;-65
2023/12/06 01:10:08;;;;;;;2.60;1.30;;;;;;;4.24;66.24;99190.97;10516779;28;20071;-66
2023/12/06 01:15:11;;;;;;;1.80;1.23;;;;;;;4.10;66.34;99195.09;10515892;28;20044;-65
2023/12/06 01:20:13;;;;;;;2.08;1.25;;;;;;;3.94;66.76;99197.53;10516001;28;20044;-64
2023/12/06 01:25:15;;;;;;;3.70;1.55;;;;;;;3.72;67.15;99205.34;10515242;28;20116;-65
2023/12/06 01:30:17;;;;;;;6.05;1.80;;;;;;;3.74;67.22;99210.47;10515026;28;20048;-64
2023/12/06 01:35:19;;;;;;;2.42;1.30;;;;;;;3.81;67.02;99206.72;10496835;28;20070;-65
2023/12/06 01:40:22;;;;;;;2.40;1.60;;;;;;;3.95;66.97;99214.72;10495359;28;20093;-65
2023/12/06 01:45:25;;;;;;;4.90;1.40;;;;;;;4.03;66.55;99227.34;10515650;28;20135;-65
2023/12/06 01:50:27;;;;;;;10.35;2.03;;;;;;;4.04;66.37;99227.28;10514943;28;20055;-65
2023/12/06 01:55:31;;;;;;;6.68;1.67;;;;;;;4.05;66.40;99226.34;10514937;28;20040;-65
2023/12/06 02:00:33;;;;;;;3.92;1.70;;;;;;;4.03;66.44;99223.00;10480697;28;20036;-65
2023/12/06 02:05:35;;;;;;;6.15;2.20;;;;;;;4.10;66.20;99218.38;10496582;28;20047;-65
2023/12/06 02:10:37;;;;;;;2.92;1.83;;;;;;;4.14;66.12;99220.78;10514727;28;20133;-65
2023/12/06 02:15:39;;;;;;;5.22;1.50;;;;;;;4.11;66.22;99227.84;10499188;28;20134;-66
2023/12/06 02:20:41;;;;;;;4.35;1.92;;;;;;;4.10;66.35;99232.16;10522461;28;20558;-65
2023/12/06 02:25:43;;;;;;;2.45;1.58;;;;;;;4.11;66.33;99223.50;10521456;28;20147;-65
2023/12/06 02:30:45;;;;;;;3.05;1.55;;;;;;;4.14;66.25;99233.72;10522307;28;20059;-65
2023/12/06 02:35:53;;;;;;;11.02;1.60;;;;;;;3.98;66.41;99234.47;10537737;27;20113;-66
2023/12/06 02:40:58;;;;;;;4.75;1.70;;;;;;;3.78;66.78;99232.72;10470051;28;20052;-66
2023/12/06 02:46:00;;;;;;;1.98;1.33;;;;;;;3.76;67.01;99237.94;10521815;28;20068;-65
2023/12/06 02:51:02;;;;;;;17.67;2.47;;;;;;;3.79;66.91;99239.56;10520642;28;20067;-65
2023/12/06 02:56:04;;;;;;;7.20;1.52;;;;;;;3.81;66.65;99242.91;10502756;28;20134;-65
2023/12/06 03:01:06;;;;;;;7.22;1.52;;;;;;;3.88;66.59;99255.53;10518903;28;20052;-66
2023/12/06 03:06:08;;;;;;;2.33;1.30;;;;;;;3.85;66.54;99262.59;10520484;28;20040;-64
2023/12/06 03:11:10;;;;;;;3.92;1.77;;;;;;;3.65;66.87;99263.44;10497732;28;20405;-65
2023/12/06 03:16:12;;;;;;;1.75;1.13;;;;;;;3.51;67.33;99264.91;10519929;28;20562;-64
2023/12/06 03:21:14;;;;;;;2.63;1.40;;;;;;;3.65;67.26;99267.75;10519960;28;20036;-65
2023/12/06 03:26:16;;;;;;;3.22;1.52;;;;;;;3.80;67.00;99270.50;10519339;28;20087;-64
2023/12/06 03:31:18;;;;;;;7.57;1.52;;;;;;;3.90;66.90;99272.75;10519273;28;20559;-64
2023/12/06 03:36:20;;;;;;;3.10;1.63;;;;;;;4.02;66.59;99267.06;10520475;28;20131;-64
2023/12/06 03:41:22;;;;;;;4.40;1.80;;;;;;;4.05;66.62;99278.09;10519902;28;20076;-64
2023/12/06 03:46:25;;;;;;;2.95;1.77;;;;;;;3.98;66.52;99271.53;10519463;28;20048;-64
2023/12/06 03:51:28;;;;;;;2.53;1.52;;;;;;;3.98;66.50;99281.88;10519181;28;20047;-64
2023/12/06 03:56:30;;;;;;;3.67;1.98;;;;;;;3.93;66.45;99286.38;10501144;28;20486;-64
2023/12/06 04:01:32;;;;;;;3.25;1.80;;;;;;;3.81;66.34;99290.31;10499902;28;20044;-64
2023/12/06 04:06:34;;;;;;;3.05;1.85;;;;;;;3.87;66.40;99297.00;10496947;28;20040;-64
2023/12/06 04:11:37;;;;;;;3.88;1.80;;;;;;;3.97;65.95;99300.88;10518351;28;20599;-66
2023/12/06 04:16:39;;;;;;;3.63;2.25;;;;;;;4.01;65.64;99310.19;10519152;28;20561;-64
2023/12/06 04:21:41;;;;;;;3.92;2.05;;;;;;;3.74;65.56;99309.56;10517040;28;20044;-64
2023/12/06 04:26:43;;;;;;;3.05;1.85;;;;;;;3.38;65.67;99320.59;10498782;28;20043;-64
2023/12/06 04:31:46;;;;;;;4.05;2.35;;;;;;;3.39;65.85;99322.28;10517263;28;20509;-65
2023/12/06 04:36:48;;;;;;;4.25;2.28;;;;;;;3.49;65.82;99329.59;10516581;28;20050;-64
2023/12/06 04:41:50;;;;;;;6.75;2.20;;;;;;;3.48;65.47;99339.97;10515341;28;20067;-64
2023/12/06 04:46:52;;;;;;;4.25;2.30;;;;;;;3.61;65.30;99338.59;10514611;28;20048;-64
2023/12/06 04:51:54;;;;;;;3.42;1.90;;;;;;;3.61;65.08;99348.94;10516730;28;20087;-63
2023/12/06 04:56:56;;;;;;;3.38;2.20;;;;;;;3.60;65.11;99357.63;10513408;28;20044;-64
2023/12/06 05:01:58;;;;;;;5.00;1.92;;;;;;;3.63;64.95;99370.41;10515223;28;20635;-64
2023/12/06 05:07:00;;;;;;;4.80;2.50;;;;;;;3.62;64.78;99368.72;10515190;28;20127;-64
2023/12/06 05:12:02;;;;;;;3.17;1.75;;;;;;;3.44;64.67;99382.38;10516325;28;20542;-64
2023/12/06 05:17:05;;;;;;;3.13;1.77;;;;;;;3.46;64.76;99383.16;10515241;28;20071;-64
2023/12/06 05:22:07;;;;;;;17.90;6.45;;;;;;;3.28;64.74;99389.03;10515057;28;20047;-63
2023/12/06 05:27:09;;;;;;;5.10;2.75;;;;;;;3.20;64.79;99394.50;10516209;28;20086;-65
2023/12/06 05:32:12;;;;;;;6.80;3.03;;;;;;;3.12;65.04;99399.13;10497488;28;20048;-65
2023/12/06 05:37:15;;;;;;;4.65;2.50;;;;;;;2.87;65.11;99411.28;10498148;28;20054;-64
2023/12/06 05:42:17;;;;;;;4.28;2.50;;;;;;;2.78;64.73;99425.38;10496090;28;20121;-65
2023/12/06 05:47:19;;;;;;;6.22;2.67;;;;;;;2.76;64.85;99422.03;10515658;28;20403;-64
2023/12/06 05:52:21;;;;;;;4.57;2.55;;;;;;;2.84;64.78;99429.47;10521194;28;20969;-64
2023/12/06 05:57:23;;;;;;;5.07;2.20;;;;;;;2.74;64.61;99431.56;10524361;28;20055;-64
2023/12/06 06:02:27;;;;;;;5.13;2.63;;;;;;;2.77;64.61;99421.09;10522115;28;20399;-64
2023/12/06 06:07:28;;;;;;;5.13;2.58;;;;;;;2.71;64.76;99441.13;10523313;28;20048;-64
2023/12/06 06:12:31;;;;;;;3.92;2.38;;;;;;;2.79;64.35;99434.78;10513957;28;20518;-64
2023/12/06 06:17:33;;;;;;;5.53;2.53;;;;;;;2.54;64.66;99443.47;10519926;28;20056;-64
2023/12/06 06:22:35;;;;;;;7.20;2.65;;;;;;;2.60;64.65;99446.66;10518149;28;20036;-64
2023/12/06 06:27:37;;;;;;;6.00;2.97;;;;;;;2.70;64.67;99450.59;10520321;28;20446;-64
2023/12/06 06:32:39;;;;;;;4.18;2.50;;;;;;;2.72;64.30;99463.50;10522321;28;20063;-65
2023/12/06 06:37:42;;;;;;;5.38;2.90;;;;;;;2.84;64.43;99466.47;10521185;28;20059;-64
2023/12/06 06:42:44;;;;;;;8.88;2.80;;;;;;;2.84;64.30;99474.22;10522729;28;20039;-64
2023/12/06 06:47:46;;;;;;;6.55;2.90;;;;;;;2.93;64.34;99489.38;10522509;28;20044;-64
2023/12/06 06:52:48;;;;;;;4.15;2.22;;;;;;;3.01;64.10;99489.09;10503973;28;20036;-64
2023/12/06 06:57:50;;;;;;;6.50;3.03;;;;;;;2.90;64.20;99489.50;10521687;28;20040;-64
2023/12/06 07:02:52;;;;;;;6.82;3.40;;;;;;;2.86;64.38;99493.09;10519081;28;20687;-65
2023/12/06 07:07:54;;;;;;;5.35;2.90;;;;;;;2.99;64.17;99503.81;10503707;28;20403;-64
2023/12/06 07:12:56;;;;;;;4.82;2.83;;;;;;;2.96;64.25;99503.94;10520364;28;20160;-65
2023/12/06 07:17:58;;;;;;;4.65;2.47;;;;;;;2.99;64.25;99506.38;10521787;28;20522;-65
2023/12/06 07:23:03;;;;;;;5.20;2.78;;;;;;;2.91;63.93;99517.00;10520775;28;20039;-64
2023/12/06 07:28:05;;;;;;;6.45;3.00;;;;;;;2.97;64.17;99521.94;10520816;28;20131;-64
2023/12/06 07:33:08;;;;;;;6.10;3.05;;;;;;;2.98;63.97;99526.22;10499771;28;20496;-64
2023/12/06 07:38:11;;;;;;;5.05;2.70;;;;;;;2.95;63.94;99538.38;10520164;28;20139;-64
2023/12/06 07:43:13;;;;;;;6.50;2.80;;;;;;;2.94;63.71;99542.72;10520281;28;20476;-64
2023/12/06 07:48:17;;;;;;;6.13;3.15;;;;;;;3.02;63.67;99543.31;10500788;28;20518;-64
2023/12/06 07:53:19;;;;;;;7.10;3.20;;;;;;;3.08;63.62;99552.56;10519467;28;20044;-64
2023/12/06 07:58:22;;;;;;;6.22;3.35;;;;;;;3.00;63.97;99562.34;10518697;28;20044;-65
2023/12/06 08:03:30;;;;;;;6.03;3.50;;;;;;;3.05;63.69;99566.44;10519645;28;20142;-64
2023/12/06 08:08:33;;;;;;;8.23;4.13;;;;;;;2.94;63.83;99570.28;10518934;28;20048;-64
2023/12/06 08:13:35;;;;;;;8.50;3.90;;;;;;;2.96;64.22;99577.09;10519492;28;20083;-64
2023/12/06 08:18:37;;;;;;;6.72;3.80;;;;;;;3.04;64.11;99585.44;10491103;28;20050;-65
2023/12/06 08:23:39;;;;;;;8.77;3.78;;;;;;;3.03;64.02;99599.22;10518416;28;20044;-64
2023/12/06 08:28:41;;;;;;;7.43;4.18;;;;;;;3.05;64.00;99599.16;10492652;28;20090;-65
2023/12/06 08:33:43;;;;;;;7.55;3.97;;;;;;;3.04;64.10;99597.50;10519024;28;20130;-64
2023/12/06 08:38:45;;;;;;;8.50;4.30;;;;;;;3.17;64.00;99600.50;10517638;28;20442;-64
2023/12/06 08:43:48;;;;;;;8.85;4.85;;;;;;;3.18;64.06;99612.50;10498264;28;20044;-64
2023/12/06 08:48:50;;;;;;;8.18;3.80;;;;;;;3.22;64.10;99603.75;10517479;28;20048;-64
2023/12/06 08:53:52;;;;;;;8.52;4.28;;;;;;;3.11;63.91;99605.88;10518255;28;20399;-64
2023/12/06 08:58:54;;;;;;;10.05;3.97;;;;;;;3.06;64.37;99611.19;10498560;28;20504;-65
2023/12/06 09:03:56;;;;;;;7.72;4.03;;;;;;;3.12;64.28;99621.31;10499582;28;20052;-64
2023/12/06 09:08:58;;;;;;;9.40;4.68;;;;;;;3.25;64.19;99624.34;10517318;28;20036;-64
2023/12/06 09:14:00;;;;;;;8.10;4.30;;;;;;;3.17;63.92;99623.75;10517196;28;20117;-64
2023/12/06 09:19:03;;;;;;;10.38;4.65;;;;;;;3.23;64.01;99632.16;10516258;28;20111;-62
2023/12/06 09:24:07;;;;;;;9.63;4.72;;;;;;;3.11;64.28;99632.53;10498765;28;20071;-64
2023/12/06 09:29:10;;;;;;;8.35;4.43;;;;;;;3.22;64.27;99632.19;10516665;28;20059;-65
2023/12/06 09:34:12;;;;;;;7.47;4.07;;;;;;;3.25;64.18;99635.53;10495279;28;20051;-63
2023/12/06 09:39:20;;;;;;;8.65;4.38;;;;;;;3.26;64.26;99637.19;10515539;28;20045;-67
2023/12/06 09:44:22;;;;;;;6.10;3.42;;;;;;;3.44;64.07;99646.03;10516224;28;20046;-67
2023/12/06 09:49:24;;;;;;;9.18;4.80;;;;;;;3.51;63.99;99655.28;10516610;28;20599;-67
2023/12/06 09:54:26;;;;;;;8.57;4.20;;;;;;;3.55;63.97;99655.13;10515288;28;21191;-67
2023/12/06 09:59:28;;;;;;;8.35;4.28;;;;;;;3.49;64.01;99659.66;10515729;28;20503;-67
2023/12/06 10:04:30;;;;;;;7.38;4.32;;;;;;;3.51;64.05;99658.72;10513969;28;20036;-67
2023/12/06 10:09:32;;;;;;;8.43;3.83;;;;;;;3.52;64.09;99662.09;10515372;28;20385;-66
2023/12/06 10:14:35;;;;;;;7.05;4.18;;;;;;;3.46;64.44;99672.66;10515630;28;20054;-67
2023/12/06 10:19:37;;;;;;;8.32;3.75;;;;;;;3.52;64.47;99670.72;10498083;28;20136;-67
2023/12/06 10:24:43;;;;;;;6.32;3.45;;;;;;;3.52;64.73;99675.03;10497101;28;21015;-67
2023/12/06 10:29:45;;;;;;;6.70;3.38;;;;;;;3.62;64.45;99679.03;10514182;28;20048;-66
2023/12/06 10:34:47;;;;;;;9.38;4.05;;;;;;;3.62;64.47;99682.41;10513776;28;20553;-67
2023/12/06 10:39:54;;;;;;;8.65;3.80;;;;;;;3.70;64.52;99679.59;10520369;28;20071;-67
2023/12/06 10:44:59;;;;;;;6.85;4.03;;;;;;;3.62;64.75;99685.00;10523039;28;20040;-67
2023/12/06 10:50:03;;;;;;;7.32;4.18;;;;;;;3.71;64.77;99689.88;10522161;28;20519;-67
2023/12/06 10:55:06;;;;;;;9.75;4.68;;;;;;;3.78;64.66;99683.56;10521610;28;20047;-67
2023/12/06 11:00:11;;;;;;;8.45;4.15;;;;;;;3.82;64.57;99689.50;10520331;28;20059;-67
2023/12/06 11:05:14;;;;;;;7.78;3.75;;;;;;;3.90;64.43;99686.66;10514490;28;20059;-67
2023/12/06 11:10:28;;;;;;;7.80;4.00;;;;;;;3.94;64.55;99683.91;10517500;28;20063;-67
2023/12/06 11:15:38;;;;;;;5.82;3.20;;;;;;;3.96;64.51;99687.28;10502086;28;20048;-67
2023/12/06 11:20:42;;;;;;;9.90;4.90;;;;;;;3.99;64.60;99688.88;10476513;28;20440;-68
2023/12/06 11:25:45;;;;;;;7.82;4.18;;;;;;;4.11;64.36;99694.44;10516345;28;20510;-67
2023/12/06 11:30:49;;;;;;;7.30;3.90;;;;;;;4.19;64.19;99696.78;10515753;28;20144;-67
2023/12/06 11:35:54;;;;;;;6.68;3.75;;;;;;;4.17;64.34;99696.81;10495516;28;20052;-67
2023/12/06 11:40:58;;;;;;;7.93;4.22;;;;;;;4.15;63.94;99696.03;10531073;27;20524;-67
2023/12/06 11:46:05;;;;;;;7.40;3.63;;;;;;;4.22;63.97;99702.66;10514413;28;20050;-67
2023/12/06 11:51:07;;;;;;;7.20;3.63;;;;;;;4.29;63.75;99698.13;10513994;28;20531;-67
2023/12/06 11:56:09;;;;;;;8.43;4.18;;;;;;;4.43;63.31;99698.44;10513070;28;20078;-67
2023/12/06 12:01:14;;;;;;;6.53;3.53;;;;;;;4.57;63.34;99691.81;10513417;28;20428;-67
2023/12/06 12:06:19;;;;;;;6.25;2.95;;;;;;;4.52;62.98;99695.47;10514111;28;20051;-68
2023/12/06 12:11:22;;;;;;;6.38;3.85;;;;;;;4.58;62.93;99698.66;10531088;28;20047;-67
2023/12/06 12:16:24;;;;;;;6.75;3.83;;;;;;;4.57;62.66;99694.41;10514044;28;20138;-67
2023/12/06 12:21:26;;;;;;;7.88;4.00;;;;;;;4.50;63.10;99711.06;10509891;28;20159;-68
2023/12/06 12:26:30;;;;;;;9.27;3.58;;;;;;;4.56;63.07;99708.25;10495354;28;20083;-68
2023/12/06 12:31:35;;;;;;;6.72;3.67;;;;;;;4.64;62.92;99707.94;10513893;28;20058;-68
2023/12/06 12:36:37;;;;;;;7.25;3.60;;;;;;;4.67;62.80;99713.84;10510811;28;20052;-68
2023/12/06 12:41:40;;;;;;;8.93;4.45;;;;;;;4.66;62.75;99722.53;10511939;28;20194;-68
2023/12/06 12:46:43;;;;;;;7.45;4.30;;;;;;;4.74;62.80;99721.38;10512529;28;20051;-68
2023/12/06 12:51:56;;;;;;;6.20;3.35;;;;;;;4.75;62.41;99731.69;10505919;28;20047;-68
2023/12/06 12:57:01;;;;;;;8.18;3.65;;;;;;;4.76;62.38;99733.34;10511842;28;20477;-68
2023/12/06 13:02:03;;;;;;;6.38;3.40;;;;;;;4.76;62.50;99729.94;10511675;28;20071;-68
2023/12/06 13:07:05;;;;;;;6.50;3.38;;;;;;;4.72;62.02;99736.16;10493606;28;20097;-67
2023/12/06 13:12:08;;;;;;;6.47;3.67;;;;;;;4.64;62.36;99739.00;10511434;28;20051;-67
2023/12/06 13:17:10;;;;;;;11.70;3.67;;;;;;;4.60;62.20;99746.06;10511131;28;20046;-68
2023/12/06 13:22:15;;;;;;;7.53;4.55;;;;;;;4.73;61.91;99749.03;10472883;28;20597;-67
2023/12/06 13:27:23;;;;;;;7.72;3.63;;;;;;;4.80;61.96;99742.69;10494800;28;20052;-67
2023/12/06 13:32:26;;;;;;;8.13;4.07;;;;;;;4.81;61.77;99747.00;10511402;28;20058;-68
2023/12/06 13:37:28;;;;;;;6.22;3.13;;;;;;;4.78;61.84;99736.72;10511736;28;20044;-67
2023/12/06 13:42:31;;;;;;;6.60;3.58;;;;;;;4.82;61.83;99732.28;10510987;28;20118;-67
2023/12/06 13:47:34;;;;;;;7.97;4.13;;;;;;;4.89;61.97;99744.09;10510147;28;20048;-67
2023/12/06 13:52:36;;;;;;;5.50;3.13;;;;;;;4.88;61.87;99753.63;10510800;28;20458;-67
2023/12/06 13:57:40;;;;;;;8.48;3.90;;;;;;;4.72;62.19;99754.28;10523068;28;20071;-67
2023/12/06 14:02:43;;;;;;;9.68;4.10;;;;;;;4.62;62.38;99764.13;10484504;28;20040;-67
2023/12/06 14:07:45;;;;;;;6.93;3.13;;;;;;;4.54;62.47;99767.03;10510984;28;20040;-68
2023/12/06 14:12:47;;;;;;;7.53;4.25;;;;;;;4.55;62.95;99770.47;10482236;28;20044;-68
2023/12/06 14:17:50;;;;;;;6.78;3.42;;;;;;;4.58;62.96;99775.50;10517830;28;20643;-67
2023/12/06 14:22:52;;;;;;;7.68;3.85;;;;;;;4.66;63.17;99789.88;10517340;28;20040;-68
2023/12/06 14:27:54;;;;;;;10.85;4.38;;;;;;;4.79;63.00;99779.88;10517260;28;21361;-69
2023/12/06 14:32:57;;;;;;;8.00;4.40;;;;;;;4.86;63.07;99789.09;10518169;28;20478;-66
2023/12/06 14:37:59;;;;;;;8.63;3.83;;;;;;;4.86;62.95;99794.28;10500072;28;20519;-68
2023/12/06 14:43:01;;;;;;;8.77;4.35;;;;;;;4.41;63.76;99802.03;10501064;28;20097;-67
2023/12/06 14:48:06;;;;;;;5.53;3.85;;;;;;;4.13;64.19;99810.88;10515070;28;20047;-68
2023/12/06 14:53:11;;;;;;;9.45;4.30;;;;;;;3.95;64.75;99812.34;10498391;28;20051;-67
2023/12/06 14:58:18;;;;;;;7.03;3.83;;;;;;;3.88;64.81;99829.00;10515819;28;20040;-67
2023/12/06 15:03:28;;;;;;;9.75;3.70;;;;;;;3.84;64.87;99828.22;10496173;28;20077;-67
2023/12/06 15:08:31;;;;;;;7.00;4.43;;;;;;;3.74;65.32;99836.34;10512745;28;20384;-67
2023/12/06 15:13:36;;;;;;;8.50;4.40;;;;;;;3.77;65.25;99836.22;10497479;28;20048;-66
2023/12/06 15:18:40;;;;;;;9.00;4.18;;;;;;;3.78;65.24;99833.56;10514655;28;20047;-67
2023/12/06 15:23:43;;;;;;;9.10;4.40;;;;;;;3.79;65.26;99855.13;10514643;28;20044;-67
2023/12/06 15:28:45;;;;;;;9.68;4.53;;;;;;;3.91;64.92;99859.91;10508560;28;20093;-67
2023/12/06 15:33:47;;;;;;;8.18;4.22;;;;;;;3.71;65.09;99867.47;10509671;28;20040;-67
2023/12/06 15:38:51;;;;;;;8.05;4.80;;;;;;;3.64;65.21;99874.56;10510925;28;20908;-67
2023/12/06 15:43:53;;;;;;;11.50;4.40;;;;;;;3.65;65.33;99884.03;10515865;28;20040;-67
2023/12/06 15:48:55;;;;;;;11.55;4.10;;;;;;;3.72;65.17;99890.69;10515192;28;20524;-67
2023/12/06 15:53:57;;;;;;;6.07;3.97;;;;;;;3.75;65.11;99890.59;10515508;28;20044;-67
2023/12/06 15:58:59;;;;;;;7.32;3.90;;;;;;;3.83;64.99;99895.50;10513392;28;20248;-67
2023/12/06 16:04:01;;;;;;;9.98;4.07;;;;;;;3.98;64.94;99904.53;10512976;28;20157;-68
2023/12/06 16:09:05;;;;;;;9.45;4.03;;;;;;;4.05;64.76;99900.88;10509218;28;20048;-68
2023/12/06 16:14:07;;;;;;;10.45;3.97;;;;;;;4.05;64.84;99913.81;10493717;28;20628;-68
2023/12/06 16:19:10;;;;;;;7.53;3.97;;;;;;;4.00;64.85;99926.91;10494954;28;20129;-68
2023/12/06 16:24:12;;;;;;;7.20;3.40;;;;;;;3.84;65.00;99936.06;10504606;28;20040;-68
2023/12/06 16:29:14;;;;;;;9.23;3.80;;;;;;;3.74;65.10;99950.16;10504083;28;20137;-68
2023/12/06 16:34:16;;;;;;;11.43;4.63;;;;;;;3.73;65.11;99958.78;10493584;28;20476;-68
2023/12/06 16:39:19;;;;;;;6.63;3.63;;;;;;;3.81;64.94;99962.81;10507535;28;20051;-67
2023/12/06 16:44:21;;;;;;;7.78;3.88;;;;;;;3.83;64.61;99975.72;10508526;28;20484;-68
2023/12/06 16:49:25;;;;;;;7.10;3.47;;;;;;;3.86;64.85;99986.00;10507032;28;20081;-67
2023/12/06 16:54:43;;;;;;;8.13;3.90;;;;;;;3.87;64.75;99985.09;10509426;28;20070;-68
2023/12/06 16:59:46;;;;;;;5.57;3.30;;;;;;;3.85;64.57;99992.91;10505899;28;20930;-68
2023/12/06 17:04:48;;;;;;;7.15;3.47;;;;;;;3.93;64.56;99989.22;10507270;28;20123;-68
2023/12/06 17:09:52;;;;;;;9.68;4.18;;;;;;;3.88;64.65;100004.91;10510162;28;20216;-68
2023/12/06 17:14:54;;;;;;;7.40;3.53;;;;;;;3.81;64.54;100009.38;10509915;28;20044;-69
2023/12/06 17:19:57;;;;;;;8.48;3.33;;;;;;;3.91;64.35;100020.31;10510610;28;20403;-68
2023/12/06 17:24:59;;;;;;;5.75;2.90;;;;;;;3.84;64.30;100029.19;10508703;28;20188;-69
2023/12/06 17:30:01;;;;;;;5.70;3.00;;;;;;;3.77;64.26;100027.63;10507315;28;20483;-69
2023/12/06 17:35:03;;;;;;;6.05;3.03;;;;;;;3.69;64.24;100038.22;10493014;28;20135;-69
2023/12/06 17:40:10;;;;;;;6.47;3.20;;;;;;;3.67;64.39;100041.75;10510986;28;20170;-68
2023/12/06 17:45:12;;;;;;;6.78;2.75;;;;;;;3.72;64.13;100043.28;10511446;28;20847;-68
2023/12/06 17:50:14;;;;;;;6.55;3.10;;;;;;;3.69;64.26;100045.97;10519908;28;20036;-69
2023/12/06 17:55:16;;;;;;;11.43;4.13;;;;;;;3.70;64.07;100050.25;10518681;28;20514;-68
2023/12/06 18:00:19;;;;;;;8.15;4.38;;;;;;;3.72;63.95;100047.63;10518091;28;20238;-69
2023/12/06 18:05:21;;;;;;;6.40;2.80;;;;;;;3.65;64.05;100038.34;10499859;28;20124;-67
2023/12/06 18:10:26;;;;;;;10.55;4.75;;;;;;;3.69;64.00;100047.72;10501180;28;20059;-68
2023/12/06 18:15:28;;;;;;;6.53;3.65;;;;;;;3.67;63.82;100052.94;10498282;28;20095;-68
2023/12/06 18:20:31;;;;;;;11.77;4.32;;;;;;;3.65;63.71;100054.72;10517841;28;20548;-67
2023/12/06 18:25:33;;;;;;;6.68;3.17;;;;;;;3.65;63.68;100067.66;10529188;27;20405;-68
2023/12/06 18:30:39;;;;;;;5.53;2.88;;;;;;;3.65;63.79;100059.88;10514723;28;20054;-68
2023/12/06 18:35:41;;;;;;;12.15;3.55;;;;;;;3.65;63.57;100070.25;10516021;28;20147;-68
2023/12/06 18:40:43;;;;;;;13.80;5.78;;;;;;;3.67;63.60;100071.03;10517124;28;20518;-68
2023/12/06 18:45:47;;;;;;;17.50;7.78;;;;;;;3.57;63.30;100076.53;10495222;28;20444;-68
2023/12/06 18:50:49;;;;;;;10.52;4.68;;;;;;;3.63;63.46;100078.94;10495615;28;20051;-68
2023/12/06 18:55:52;;;;;;;13.43;4.82;;;;;;;3.57;63.48;100076.53;10495086;28;20158;-68
2023/12/06 19:00:54;;;;;;;9.38;4.38;;;;;;;3.59;63.60;100085.94;10514413;28;20054;-69
2023/12/06 19:05:57;;;;;;;14.00;5.97;;;;;;;3.57;63.57;100077.38;10509773;28;20044;-68
2023/12/06 19:10:59;;;;;;;12.95;4.53;;;;;;;3.61;63.35;100084.16;10516307;28;20040;-67
2023/12/06 19:16:02;;;;;;;9.18;4.18;;;;;;;3.57;63.54;100079.97;10513615;28;20113;-67
2023/12/06 19:21:04;;;;;;;9.75;4.45;;;;;;;3.51;63.67;100098.25;10514162;28;20150;-68
2023/12/06 19:26:07;;;;;;;10.60;4.80;;;;;;;3.49;63.34;100092.25;10513411;28;20128;-67
2023/12/06 19:31:10;;;;;;;11.60;4.50;;;;;;;3.58;63.40;100096.28;10511521;28;20194;-68
2023/12/06 19:36:13;;;;;;;13.65;5.72;;;;;;;3.64;63.38;100093.56;10478581;28;20058;-68
2023/12/06 19:41:15;;;;;;;6.90;3.38;;;;;;;3.58;63.00;100104.91;10514642;28;20167;-68
2023/12/06 19:46:17;;;;;;;11.30;3.28;;;;;;;3.63;63.37;100122.88;10508937;28;20052;-67
2023/12/06 19:51:19;;;;;;;9.05;4.20;;;;;;;3.68;63.80;100132.19;10513997;28;20059;-67
2023/12/06 19:56:22;;;;;;;7.32;3.47;;;;;;;3.80;63.82;100131.03;10514406;28;20126;-67
2023/12/06 20:01:26;;;;;;;11.35;3.58;;;;;;;3.88;63.79;100131.69;10512319;28;20056;-67
2023/12/06 20:06:28;;;;;;;9.23;4.15;;;;;;;3.98;63.78;100134.84;10512761;28;20043;-68
2023/12/06 20:11:31;;;;;;;7.43;3.55;;;;;;;3.80;64.04;100136.19;10511851;28;20599;-67
2023/12/06 20:16:33;;;;;;;6.28;3.72;;;;;;;3.69;64.23;100128.75;10512565;28;20684;-67
2023/12/06 20:21:37;;;;;;;4.40;2.55;;;;;;;3.88;64.21;100128.25;10513902;28;20052;-69
2023/12/06 20:26:39;;;;;;;5.65;2.67;;;;;;;4.00;64.12;100128.72;10493447;28;20055;-67
2023/12/06 20:31:41;;;;;;;5.70;2.67;;;;;;;4.16;63.76;100149.81;10509836;28;20775;-68
2023/12/06 20:36:43;;;;;;;5.95;3.17;;;;;;;4.17;63.81;100151.50;10514121;28;20407;-69
2023/12/06 20:41:45;;;;;;;6.22;2.97;;;;;;;4.20;63.74;100154.84;10514845;28;20068;-67
2023/12/06 20:46:47;;;;;;;5.30;3.00;;;;;;;4.04;64.11;100160.53;10480365;28;20054;-69
2023/12/06 20:51:50;;;;;;;5.03;3.05;;;;;;;3.91;64.66;100167.78;10514112;28;20056;-69
2023/12/06 20:56:53;;;;;;;6.70;2.83;;;;;;;4.00;64.79;100161.50;10514270;28;20475;-68
2023/12/06 21:01:55;;;;;;;4.57;2.47;;;;;;;4.04;64.58;100168.28;10514400;28;20142;-67
2023/12/06 21:06:58;;;;;;;5.88;2.90;;;;;;;4.01;64.38;100171.81;10514284;28;20138;-69
2023/12/06 21:12:00;;;;;;;7.57;2.95;;;;;;;3.97;64.52;100167.63;10514993;28;20368;-69
2023/12/06 21:17:02;;;;;;;5.13;2.83;;;;;;;3.86;64.43;100165.34;10514655;28;20160;-68
2023/12/06 21:22:04;;;;;;;6.13;3.38;;;;;;;3.70;64.60;100170.97;10513764;28;20806;-68
2023/12/06 21:27:06;;;;;;;6.13;3.28;;;;;;;3.59;64.99;100173.00;10514142;28;20059;-68
2023/12/06 21:32:08;;;;;;;6.32;2.92;;;;;;;3.57;64.86;100173.06;10496415;28;20411;-67
2023/12/06 21:37:10;;;;;;;6.95;2.88;;;;;;;3.44;64.75;100174.25;10514374;28;20126;-68
2023/12/06 21:42:12;;;;;;;5.90;2.95;;;;;;;3.31;64.80;100174.63;10496636;28;20048;-67
2023/12/06 21:47:14;;;;;;;6.30;2.97;;;;;;;3.07;65.02;100182.13;10515225;28;20040;-67
2023/12/06 21:52:16;;;;;;;8.98;3.53;;;;;;;2.92;65.06;100195.44;10513805;28;20048;-68
2023/12/06 21:57:19;;;;;;;7.18;3.05;;;;;;;2.87;65.15;100186.09;10514685;28;20109;-67
2023/12/06 22:02:23;;;;;;;6.88;3.40;;;;;;;2.80;65.36;100190.56;10514271;28;20753;-69
2023/12/06 22:07:25;;;;;;;7.40;3.83;;;;;;;2.66;65.54;100190.03;10512080;28;20082;-68
2023/12/06 22:12:27;;;;;;;7.00;3.60;;;;;;;2.57;65.71;100197.16;10496284;28;20052;-69
2023/12/06 22:17:29;;;;;;;5.30;2.90;;;;;;;2.50;65.94;100193.03;10513968;28;20051;-68
2023/12/06 22:22:31;;;;;;;6.65;3.60;;;;;;;2.50;65.71;100211.09;10480287;28;20052;-68
2023/12/06 22:27:33;;;;;;;5.43;3.13;;;;;;;2.53;65.96;100206.72;10514037;28;20040;-69
2023/12/06 22:32:35;;;;;;;7.15;2.50;;;;;;;2.48;66.01;100213.69;10516289;28;20330;-68
2023/12/06 22:37:38;;;;;;;7.35;3.03;;;;;;;2.43;66.33;100212.97;10522873;28;20076;-69
2023/12/06 22:42:40;;;;;;;6.22;2.83;;;;;;;2.41;66.74;100219.88;10522704;28;20197;-68
2023/12/06 22:47:42;;;;;;;7.78;3.10;;;;;;;2.56;66.73;100237.59;10523232;28;20052;-69
2023/12/06 22:52:44;;;;;;;7.40;3.50;;;;;;;2.58;66.75;100225.50;10522622;28;20110;-68
2023/12/06 22:57:46;;;;;;;6.88;3.40;;;;;;;2.62;66.61;100227.13;10522153;28;20196;-68
2023/12/06 23:02:48;;;;;;;9.65;3.25;;;;;;;2.60;66.28;100231.47;10522406;28;20080;-68
2023/12/06 23:07:51;;;;;;;7.00;3.33;;;;;;;2.45;66.54;100241.31;10521302;28;20507;-68
2023/12/06 23:12:53;;;;;;;5.60;2.63;;;;;;;2.43;66.41;100250.81;10516207;28;20044;-69
2023/12/06 23:17:55;;;;;;;6.22;3.03;;;;;;;2.31;66.80;100249.38;10521390;28;20091;-69
2023/12/06 23:23:18;;;;;;;6.28;3.05;;;;;;;2.31;67.26;100251.09;10521414;28;20158;-69
2023/12/06 23:28:21;;;;;;;8.43;3.10;;;;;;;2.47;67.12;100248.16;10521315;28;20048;-69
2023/12/06 23:33:23;;;;;;;8.02;3.13;;;;;;;2.56;67.08;100252.28;10519477;28;20075;-69
2023/12/06 23:38:25;;;;;;;7.80;3.25;;;;;;;2.62;66.62;100259.88;10520603;28;20040;-68